Time;durP1;ratioP1;P1;durP2;ratioP2;P2;SDS_P1;SDS_P2;PMS_P1;PMS_P2;Temp;Humidity;BMP_temperature;BMP_pressure;BME280_temperature;BME280_humidity;BME280_pressure;Samples;Min_cycle;Max_cycle;Signal;HPM_P1;HPM_P2
2023/05/14 00:00:11;;;;;;;;;;;10.90;99.90;;;;;;5133201;27;19930;-87
2023/05/14 00:02:37;;;;;;;;;;;10.90;99.90;;;;;;5152624;27;20477;-88
2023/05/14 00:05:02;;;;;;;;;;;10.90;99.90;;;;;;5154637;27;19934;-87
2023/05/14 00:07:29;;;;;;;;;;;10.90;99.90;;;;;;5124426;27;19938;-88
2023/05/14 00:09:58;;;;;;;;;;;10.90;99.90;;;;;;5127149;27;20271;-87
2023/05/14 00:12:25;;;;;;;;;;;10.90;99.90;;;;;;5131686;27;20346;-87
2023/05/14 00:14:51;;;;;;;;;;;11.00;99.90;;;;;;5148930;27;19927;-87
2023/05/14 00:17:16;;;;;;;;;;;11.00;99.90;;;;;;5147109;27;19930;-86
2023/05/14 00:19:42;;;;;;;;;;;11.00;99.90;;;;;;5132834;27;19927;-87
2023/05/14 00:22:08;;;;;;;;;;;11.00;99.90;;;;;;5170274;27;20307;-87
2023/05/14 00:24:34;;;;;;;;;;;11.00;99.90;;;;;;5126343;27;20359;-86
2023/05/14 00:26:59;;;;;;;;;;;11.00;99.90;;;;;;5134840;27;19966;-87
2023/05/14 00:29:25;;;;;;;;;;;11.00;99.90;;;;;;5126474;27;20030;-86
2023/05/14 00:31:50;;;;;;;;;;;11.00;99.90;;;;;;5129685;27;20127;-85
2023/05/14 00:34:16;;;;;;;;;;;11.00;99.90;;;;;;5128656;27;19923;-88
2023/05/14 00:36:42;;;;;;;;;;;11.00;99.90;;;;;;5117417;27;19922;-88
2023/05/14 00:39:07;;;;;;;;;;;10.90;99.90;;;;;;5148761;27;19937;-85
2023/05/14 00:41:33;;;;;;;;;;;10.90;99.90;;;;;;5133384;27;19979;-86
2023/05/14 00:43:58;;;;;;;;;;;10.90;99.90;;;;;;5149307;27;19937;-88
2023/05/14 00:46:25;;;;;;;;;;;10.90;99.90;;;;;;5125757;27;19923;-86
2023/05/14 00:48:50;;;;;;;;;;;10.80;99.90;;;;;;5137710;27;19923;-88
2023/05/14 00:51:17;;;;;;;;;;;10.80;99.90;;;;;;5127172;27;19930;-88
2023/05/14 00:53:43;;;;;;;;;;;10.70;99.90;;;;;;5152314;27;19931;-87
2023/05/14 00:56:09;;;;;;;;;;;10.70;99.90;;;;;;5133208;27;19949;-88
2023/05/14 00:58:35;;;;;;;;;;;10.70;99.90;;;;;;5128755;27;19927;-87
2023/05/14 01:01:00;;;;;;;;;;;10.60;99.90;;;;;;5145777;27;19934;-88
2023/05/14 01:03:29;;;;;;;;;;;10.50;99.90;;;;;;5115031;27;19975;-88
2023/05/14 01:06:07;;;;;;;;;;;10.50;99.90;;;;;;5145403;27;19923;-88
2023/05/14 01:08:51;;;;;;;;;;;10.50;99.90;;;;;;5129010;27;19949;-87
2023/05/14 01:11:32;;;;;;;;;;;10.40;99.90;;;;;;5135340;27;20413;-87
2023/05/14 01:14:13;;;;;;;;;;;10.30;99.90;;;;;;5117499;27;20031;-87
2023/05/14 01:16:39;;;;;;;;;;;10.30;99.90;;;;;;5128388;27;19931;-88
2023/05/14 01:19:09;;;;;;;;;;;10.20;99.90;;;;;;5127330;27;19927;-88
2023/05/14 01:21:39;;;;;;;;;;;10.20;99.90;;;;;;5131703;27;20328;-88
2023/05/14 01:24:06;;;;;;;;;;;10.10;99.90;;;;;;5140453;27;19927;-87
2023/05/14 01:26:31;;;;;;;;;;;10.00;99.90;;;;;;5140720;27;19967;-87
2023/05/14 01:29:03;;;;;;;;;;;10.00;99.90;;;;;;5150192;27;20021;-87
2023/05/14 01:31:31;;;;;;;;;;;10.00;99.90;;;;;;5130808;27;19923;-87
2023/05/14 01:33:57;;;;;;;;;;;9.90;99.90;;;;;;5150533;27;20009;-88
2023/05/14 01:36:23;;;;;;;;;;;9.90;99.90;;;;;;5129048;27;20022;-87
2023/05/14 01:38:50;;;;;;;;;;;9.90;99.90;;;;;;5107559;27;19977;-87
2023/05/14 01:41:16;;;;;;;;;;;9.90;99.90;;;;;;5127995;27;20332;-87
2023/05/14 01:43:43;;;;;;;;;;;9.80;99.90;;;;;;5132234;27;19930;-87
2023/05/14 01:46:09;;;;;;;;;;;9.80;99.90;;;;;;5107029;27;19970;-87
2023/05/14 01:48:34;;;;;;;;;;;9.80;99.90;;;;;;5105169;27;20015;-87
2023/05/14 01:51:01;;;;;;;;;;;9.80;99.90;;;;;;5129994;27;20021;-87
2023/05/14 01:53:26;;;;;;;;;;;9.70;99.90;;;;;;5129265;27;20324;-86
2023/05/14 01:55:52;;;;;;;;;;;9.70;99.90;;;;;;5140897;27;19926;-87
2023/05/14 01:58:18;;;;;;;;;;;9.70;99.90;;;;;;5130411;27;19927;-86
2023/05/14 02:00:44;;;;;;;;;;;9.70;99.90;;;;;;5127483;27;19967;-86
2023/05/14 02:03:09;;;;;;;;;;;9.70;99.90;;;;;;5132297;27;20355;-86
2023/05/14 02:05:35;;;;;;;;;;;9.70;99.90;;;;;;5105606;27;19929;-86
2023/05/14 02:08:00;;;;;;;;;;;9.70;99.90;;;;;;5147245;27;19923;-87
2023/05/14 02:10:26;;;;;;;;;;;9.70;99.90;;;;;;5134016;27;19922;-85
2023/05/14 02:12:52;;;;;;;;;;;9.70;99.90;;;;;;5154505;27;19926;-86
2023/05/14 02:15:17;;;;;;;;;;;9.70;99.90;;;;;;5135160;27;19927;-87
2023/05/14 02:17:43;;;;;;;;;;;9.60;99.90;;;;;;5111031;27;19931;-86
2023/05/14 02:20:09;;;;;;;;;;;9.70;99.90;;;;;;5143777;27;20332;-86
2023/05/14 02:22:34;;;;;;;;;;;9.70;99.90;;;;;;5137624;27;20310;-84
2023/05/14 02:25:00;;;;;;;;;;;9.70;99.90;;;;;;5137861;27;19923;-86
2023/05/14 02:27:25;;;;;;;;;;;9.70;99.90;;;;;;5149716;27;19929;-86
2023/05/14 02:29:51;;;;;;;;;;;9.70;99.90;;;;;;5115025;27;19923;-86
2023/05/14 02:32:17;;;;;;;;;;;9.70;99.90;;;;;;5156423;27;19927;-86
2023/05/14 02:34:42;;;;;;;;;;;9.70;99.90;;;;;;5152093;27;19995;-85
2023/05/14 02:37:08;;;;;;;;;;;9.70;99.90;;;;;;5129041;27;20290;-86
2023/05/14 02:39:34;;;;;;;;;;;9.70;99.90;;;;;;5151345;27;19923;-87
2023/05/14 02:41:59;;;;;;;;;;;9.70;99.90;;;;;;5146854;27;19970;-87
2023/05/14 02:44:25;;;;;;;;;;;9.70;99.90;;;;;;5140338;27;20275;-86
2023/05/14 02:46:51;;;;;;;;;;;9.70;99.90;;;;;;5119785;27;19932;-86
2023/05/14 02:49:16;;;;;;;;;;;9.70;99.90;;;;;;5114567;27;19983;-87
2023/05/14 02:51:42;;;;;;;;;;;9.70;99.90;;;;;;5103697;27;20015;-86
2023/05/14 02:54:07;;;;;;;;;;;9.60;99.90;;;;;;5151452;27;19934;-85
2023/05/14 02:56:33;;;;;;;;;;;9.60;99.90;;;;;;5111041;27;19927;-86
2023/05/14 02:58:59;;;;;;;;;;;9.60;99.90;;;;;;5135744;27;20239;-86
2023/05/14 03:01:24;;;;;;;;;;;9.60;99.90;;;;;;5127098;27;19930;-86
2023/05/14 03:03:50;;;;;;;;;;;9.60;99.90;;;;;;5121504;27;19923;-86
2023/05/14 03:06:16;;;;;;;;;;;9.60;99.90;;;;;;5139055;27;19930;-87
2023/05/14 03:08:41;;;;;;;;;;;9.60;99.90;;;;;;5118434;27;19931;-86
2023/05/14 03:11:07;;;;;;;;;;;9.50;99.90;;;;;;5151736;27;20107;-87
2023/05/14 03:13:32;;;;;;;;;;;9.50;99.90;;;;;;5136231;27;19927;-87
2023/05/14 03:15:58;;;;;;;;;;;9.50;99.90;;;;;;5155446;27;19965;-87
2023/05/14 03:18:23;;;;;;;;;;;9.50;99.90;;;;;;5136410;27;19930;-87
2023/05/14 03:20:49;;;;;;;;;;;9.50;99.90;;;;;;5131789;27;19929;-86
2023/05/14 03:23:15;;;;;;;;;;;9.40;99.90;;;;;;5138053;27;19923;-86
2023/05/14 03:25:40;;;;;;;;;;;9.40;99.90;;;;;;5136555;27;20382;-85
2023/05/14 03:28:06;;;;;;;;;;;9.40;99.90;;;;;;5150960;27;20423;-87
2023/05/14 03:30:31;;;;;;;;;;;9.50;99.90;;;;;;5108932;27;19938;-87
2023/05/14 03:32:57;;;;;;;;;;;9.40;99.90;;;;;;5152292;27;20305;-87
2023/05/14 03:35:23;;;;;;;;;;;9.40;99.90;;;;;;5139427;27;19927;-86
2023/05/14 03:37:49;;;;;;;;;;;9.40;99.90;;;;;;5134006;27;20323;-86
2023/05/14 03:40:15;;;;;;;;;;;9.40;99.90;;;;;;5137026;27;19930;-87
2023/05/14 03:42:40;;;;;;;;;;;9.40;99.90;;;;;;5117165;27;19924;-86
2023/05/14 03:45:06;;;;;;;;;;;9.40;99.90;;;;;;5124461;27;19930;-87
2023/05/14 03:47:32;;;;;;;;;;;9.40;99.90;;;;;;5139368;27;19927;-86
2023/05/14 03:49:58;;;;;;;;;;;9.50;99.90;;;;;;5115093;27;19934;-86
2023/05/14 03:52:23;;;;;;;;;;;9.40;99.90;;;;;;5130252;27;19927;-85
2023/05/14 03:54:49;;;;;;;;;;;9.50;99.90;;;;;;5141929;27;19966;-86
2023/05/14 03:57:14;;;;;;;;;;;9.40;99.90;;;;;;5141306;27;20380;-87
2023/05/14 03:59:40;;;;;;;;;;;9.50;99.90;;;;;;5130633;27;19930;-87
2023/05/14 04:02:05;;;;;;;;;;;9.50;99.90;;;;;;5122326;27;20022;-87
2023/05/14 04:04:31;;;;;;;;;;;9.50;99.90;;;;;;5122455;27;19930;-86
2023/05/14 04:06:57;;;;;;;;;;;9.50;99.90;;;;;;5147962;27;19933;-86
2023/05/14 04:09:22;;;;;;;;;;;9.50;99.90;;;;;;5130832;27;19930;-87
2023/05/14 04:11:48;;;;;;;;;;;9.50;99.90;;;;;;5114179;27;19930;-85
2023/05/14 04:14:13;;;;;;;;;;;9.50;99.90;;;;;;5126177;27;20435;-85
2023/05/14 04:16:39;;;;;;;;;;;9.50;99.90;;;;;;5123669;27;19927;-86
2023/05/14 04:19:04;;;;;;;;;;;9.50;99.90;;;;;;5106982;27;19970;-86
2023/05/14 04:21:30;;;;;;;;;;;9.40;99.90;;;;;;5145869;27;19922;-86
2023/05/14 04:23:56;;;;;;;;;;;9.40;99.90;;;;;;5150892;27;19923;-86
2023/05/14 04:26:21;;;;;;;;;;;9.50;99.90;;;;;;5130004;27;19971;-86
2023/05/14 04:28:47;;;;;;;;;;;9.50;99.90;;;;;;5126661;27;20025;-85
2023/05/14 04:31:14;;;;;;;;;;;9.50;99.90;;;;;;5115844;27;19942;-87
2023/05/14 04:33:39;;;;;;;;;;;9.50;99.90;;;;;;5128016;27;19922;-86
2023/05/14 04:36:05;;;;;;;;;;;9.60;99.90;;;;;;5124707;27;20030;-86
2023/05/14 04:38:31;;;;;;;;;;;9.60;99.90;;;;;;5129078;27;19923;-86
2023/05/14 04:40:57;;;;;;;;;;;9.70;99.90;;;;;;5133275;27;19931;-86
2023/05/14 04:43:22;;;;;;;;;;;9.70;99.90;;;;;;5109946;27;20517;-85
2023/05/14 04:45:48;;;;;;;;;;;9.80;99.90;;;;;;5149868;27;19933;-86
2023/05/14 04:48:13;;;;;;;;;;;9.90;99.90;;;;;;5137544;27;20815;-85
2023/05/14 04:50:39;;;;;;;;;;;9.90;99.90;;;;;;5142758;27;20372;-85
2023/05/14 04:53:05;;;;;;;;;;;10.00;99.90;;;;;;5139655;27;20268;-85
2023/05/14 04:55:30;;;;;;;;;;;10.10;99.90;;;;;;5140503;27;19923;-86
2023/05/14 04:57:56;;;;;;;;;;;10.10;99.90;;;;;;5130666;27;20372;-85
2023/05/14 05:00:22;;;;;;;;;;;10.20;99.90;;;;;;5126402;27;19927;-85
2023/05/14 05:02:47;;;;;;;;;;;10.20;99.90;;;;;;5104478;27;19931;-86
2023/05/14 05:05:13;;;;;;;;;;;10.10;99.90;;;;;;5129908;27;19939;-86
2023/05/14 05:07:38;;;;;;;;;;;10.20;99.90;;;;;;5133495;27;20014;-85
2023/05/14 05:10:04;;;;;;;;;;;10.20;99.90;;;;;;5124781;27;19946;-85
2023/05/14 05:12:30;;;;;;;;;;;10.20;99.90;;;;;;5119192;27;19982;-85
2023/05/14 05:14:56;;;;;;;;;;;10.20;99.90;;;;;;5145594;27;19924;-84
2023/05/14 05:17:22;;;;;;;;;;;10.20;99.90;;;;;;5112411;27;19923;-85
2023/05/14 05:19:47;;;;;;;;;;;10.20;99.90;;;;;;5146315;27;20386;-85
2023/05/14 05:22:13;;;;;;;;;;;10.30;99.90;;;;;;5141421;27;19927;-86
2023/05/14 05:24:39;;;;;;;;;;;10.40;99.90;;;;;;5136151;27;19930;-85
2023/05/14 05:27:05;;;;;;;;;;;10.50;99.90;;;;;;5132684;27;19923;-84
2023/05/14 05:29:30;;;;;;;;;;;10.60;99.90;;;;;;5130847;27;19930;-85
2023/05/14 05:31:56;;;;;;;;;;;10.70;99.90;;;;;;5116282;27;19928;-82
2023/05/14 05:34:22;;;;;;;;;;;10.80;99.90;;;;;;5140788;27;19968;-84
2023/05/14 05:36:47;;;;;;;;;;;10.90;99.90;;;;;;5141006;27;20011;-86
2023/05/14 05:39:13;;;;;;;;;;;10.90;99.90;;;;;;5148851;27;20299;-86
2023/05/14 05:41:39;;;;;;;;;;;11.00;99.90;;;;;;5109355;27;19941;-86
2023/05/14 05:44:05;;;;;;;;;;;11.10;99.90;;;;;;5125374;27;19930;-86
2023/05/14 05:46:30;;;;;;;;;;;11.10;99.90;;;;;;5133500;27;19923;-86
2023/05/14 05:48:56;;;;;;;;;;;11.10;99.90;;;;;;5151195;27;19922;-86
2023/05/14 05:51:21;;;;;;;;;;;11.20;99.90;;;;;;5126729;27;19929;-86
2023/05/14 05:53:47;;;;;;;;;;;11.20;99.90;;;;;;5149238;27;19927;-87
2023/05/14 05:56:12;;;;;;;;;;;11.30;99.90;;;;;;5142802;27;19926;-87
2023/05/14 05:58:38;;;;;;;;;;;11.40;99.90;;;;;;5134165;27;19928;-86
2023/05/14 06:01:04;;;;;;;;;;;11.60;99.90;;;;;;5117436;27;19929;-85
2023/05/14 06:03:30;;;;;;;;;;;11.70;99.90;;;;;;5116507;27;20398;-87
2023/05/14 06:05:55;;;;;;;;;;;11.80;99.90;;;;;;5136946;27;19922;-87
2023/05/14 06:08:21;;;;;;;;;;;12.00;99.90;;;;;;5157307;27;19970;-86
2023/05/14 06:10:46;;;;;;;;;;;12.20;99.90;;;;;;5152645;27;19931;-86
2023/05/14 06:13:12;;;;;;;;;;;12.40;99.90;;;;;;5155217;27;19998;-83
2023/05/14 06:15:37;;;;;;;;;;;12.50;99.90;;;;;;5150319;27;19958;-85
2023/05/14 06:18:03;;;;;;;;;;;12.70;99.90;;;;;;5126868;27;19927;-84
2023/05/14 06:20:29;;;;;;;;;;;12.90;99.90;;;;;;5150469;27;19927;-84
2023/05/14 06:22:54;;;;;;;;;;;13.00;99.90;;;;;;5155448;27;19927;-83
2023/05/14 06:25:20;;;;;;;;;;;13.20;99.90;;;;;;5153398;27;20423;-84
2023/05/14 06:27:45;;;;;;;;;;;13.40;99.90;;;;;;5155840;27;20295;-83
2023/05/14 06:30:11;;;;;;;;;;;13.60;99.90;;;;;;5126365;27;19930;-84
2023/05/14 06:32:37;;;;;;;;;;;13.90;99.90;;;;;;5132407;27;19978;-84
2023/05/14 06:35:03;;;;;;;;;;;14.00;99.90;;;;;;5149678;27;19966;-83
2023/05/14 06:37:28;;;;;;;;;;;14.20;99.90;;;;;;5150276;27;19937;-84
2023/05/14 06:39:54;;;;;;;;;;;14.50;99.90;;;;;;5153149;27;19936;-85
2023/05/14 06:42:19;;;;;;;;;;;14.70;99.90;;;;;;5167499;27;19930;-83
2023/05/14 06:44:45;;;;;;;;;;;15.00;99.90;;;;;;5133388;27;19930;-85
2023/05/14 06:47:11;;;;;;;;;;;15.20;99.90;;;;;;5132023;27;19970;-86
2023/05/14 06:49:36;;;;;;;;;;;15.30;99.90;;;;;;5130032;27;20430;-85
2023/05/14 06:52:02;;;;;;;;;;;15.60;99.90;;;;;;5129053;27;19927;-84
2023/05/14 06:54:28;;;;;;;;;;;15.80;99.90;;;;;;5147439;27;20833;-89
2023/05/14 06:56:53;;;;;;;;;;;15.90;99.90;;;;;;5145763;27;19927;-88
2023/05/14 06:59:19;;;;;;;;;;;16.10;99.90;;;;;;5145433;27;20332;-87
2023/05/14 07:01:45;;;;;;;;;;;16.40;99.90;;;;;;5116124;27;19933;-86
2023/05/14 07:04:10;;;;;;;;;;;16.60;99.90;;;;;;5152420;27;19923;-88
2023/05/14 07:06:36;;;;;;;;;;;16.80;99.90;;;;;;5157956;27;19923;-89
2023/05/14 07:09:02;;;;;;;;;;;17.00;99.90;;;;;;5145303;27;19923;-89
2023/05/14 07:11:27;;;;;;;;;;;17.10;99.90;;;;;;5146372;27;19926;-88
2023/05/14 07:13:53;;;;;;;;;;;17.20;99.90;;;;;;5127450;27;19926;-89
2023/05/14 07:16:18;;;;;;;;;;;17.40;99.90;;;;;;5144362;27;19934;-86
2023/05/14 07:18:44;;;;;;;;;;;17.60;99.90;;;;;;5148993;27;19944;-86
2023/05/14 07:21:10;;;;;;;;;;;17.80;99.90;;;;;;5130980;27;19927;-85
2023/05/14 07:23:37;;;;;;;;;;;17.90;99.90;;;;;;5149203;27;19926;-86
2023/05/14 07:26:04;;;;;;;;;;;18.00;99.90;;;;;;5134268;27;20013;-86
2023/05/14 07:28:29;;;;;;;;;;;18.30;99.90;;;;;;5155407;27;19934;-86
2023/05/14 07:30:55;;;;;;;;;;;18.50;99.90;;;;;;5137878;27;20248;-85
2023/05/14 07:33:21;;;;;;;;;;;18.60;99.90;;;;;;5125941;27;19926;-86
2023/05/14 07:35:46;;;;;;;;;;;18.70;99.90;;;;;;5137945;27;19923;-86
2023/05/14 07:38:12;;;;;;;;;;;18.80;99.90;;;;;;5143900;27;19927;-85
2023/05/14 07:40:37;;;;;;;;;;;18.80;99.90;;;;;;5153159;27;20328;-84
2023/05/14 07:43:03;;;;;;;;;;;18.80;99.90;;;;;;5132557;27;19934;-85
2023/05/14 07:45:29;;;;;;;;;;;18.70;99.90;;;;;;5155575;27;19923;-86
2023/05/14 07:47:54;;;;;;;;;;;18.60;99.90;;;;;;5150660;27;19923;-86
2023/05/14 07:50:20;;;;;;;;;;;18.70;99.90;;;;;;5154739;27;20013;-86
2023/05/14 07:52:46;;;;;;;;;;;18.80;99.90;;;;;;5137924;27;19923;-86
2023/05/14 07:55:12;;;;;;;;;;;18.90;99.90;;;;;;5143716;27;20279;-86
2023/05/14 07:57:37;;;;;;;;;;;19.00;99.90;;;;;;5131110;27;19930;-86
2023/05/14 08:00:06;;;;;;;;;;;19.00;99.90;;;;;;5150663;27;19926;-85
2023/05/14 08:02:32;;;;;;;;;;;19.00;99.90;;;;;;5136395;27;20290;-87
2023/05/14 08:04:58;;;;;;;;;;;18.90;99.90;;;;;;5131707;27;20018;-86
2023/05/14 08:07:23;;;;;;;;;;;18.90;99.90;;;;;;5130296;27;19962;-86
2023/05/14 08:09:49;;;;;;;;;;;18.90;99.90;;;;;;5124513;27;19922;-85
2023/05/14 08:12:15;;;;;;;;;;;18.90;99.90;;;;;;5155085;27;19933;-86
2023/05/14 08:14:41;;;;;;;;;;;19.00;99.90;;;;;;5124823;27;19945;-87
2023/05/14 08:17:06;;;;;;;;;;;18.90;99.90;;;;;;5147949;27;19923;-87
2023/05/14 08:19:32;;;;;;;;;;;18.90;99.90;;;;;;5148189;27;19970;-86
2023/05/14 08:21:57;;;;;;;;;;;19.00;99.90;;;;;;5134237;27;19931;-86
2023/05/14 08:24:23;;;;;;;;;;;19.00;99.90;;;;;;5117467;27;19927;-84
2023/05/14 08:26:48;;;;;;;;;;;19.20;99.90;;;;;;5152458;27;19992;-86
2023/05/14 08:29:14;;;;;;;;;;;19.60;99.90;;;;;;5133714;27;19923;-86
2023/05/14 08:31:40;;;;;;;;;;;19.80;99.90;;;;;;5134666;27;20017;-86
2023/05/14 08:34:05;;;;;;;;;;;19.90;99.90;;;;;;5137673;27;19952;-87
2023/05/14 08:36:31;;;;;;;;;;;19.90;99.90;;;;;;5114456;27;19998;-86
2023/05/14 08:38:57;;;;;;;;;;;20.00;99.90;;;;;;5130860;27;19929;-86
2023/05/14 08:41:22;;;;;;;;;;;20.10;99.90;;;;;;5153960;27;19927;-86
2023/05/14 08:44:00;;;;;;;;;;;20.30;99.90;;;;;;5147989;27;19933;-86
2023/05/14 08:46:29;;;;;;;;;;;20.30;99.90;;;;;;5135445;27;20414;-87
2023/05/14 08:48:57;;;;;;;;;;;20.80;98.00;;;;;;5149439;27;19945;-87
2023/05/14 08:51:23;;;;;;;;;;;21.40;96.50;;;;;;5137464;27;19997;-86
2023/05/14 08:53:48;;;;;;;;;;;22.00;95.30;;;;;;5149186;27;20013;-87
2023/05/14 08:56:15;;;;;;;;;;;22.40;88.50;;;;;;5126172;27;20013;-86
2023/05/14 08:58:40;;;;;;;;;;;22.60;75.10;;;;;;5114287;27;20365;-86
2023/05/14 09:01:06;;;;;;;;;;;22.60;76.60;;;;;;5134357;27;19922;-86
2023/05/14 09:03:32;;;;;;;;;;;22.50;77.30;;;;;;5131539;27;20283;-85
2023/05/14 09:05:58;;;;;;;;;;;22.60;83.60;;;;;;5153051;27;19937;-87
2023/05/14 09:08:23;;;;;;;;;;;22.60;76.80;;;;;;5123996;27;19934;-86
2023/05/14 09:10:49;;;;;;;;;;;22.50;68.50;;;;;;5153242;27;19938;-85
2023/05/14 09:13:15;;;;;;;;;;;22.50;71.80;;;;;;5134608;27;19926;-86
2023/05/14 09:15:40;;;;;;;;;;;22.70;74.30;;;;;;5139959;27;19918;-86
2023/05/14 09:18:06;;;;;;;;;;;22.90;73.20;;;;;;5134867;27;19990;-87
2023/05/14 09:20:32;;;;;;;;;;;23.10;66.50;;;;;;5136586;27;20294;-86
2023/05/14 09:22:58;;;;;;;;;;;23.20;66.20;;;;;;5128482;27;19942;-86
2023/05/14 09:25:30;;;;;;;;;;;23.50;66.20;;;;;;5137025;27;19978;-85
2023/05/14 09:27:57;;;;;;;;;;;24.00;62.20;;;;;;5133187;27;20134;-86
2023/05/14 09:30:23;;;;;;;;;;;24.30;55.40;;;;;;5119064;27;19923;-91
2023/05/14 09:32:51;;;;;;;;;;;24.40;59.40;;;;;;5136785;27;19927;-88
2023/05/14 09:35:17;;;;;;;;;;;24.40;62.40;;;;;;5134462;27;19972;-86
2023/05/14 09:37:52;;;;;;;;;;;24.50;60.00;;;;;;5135034;27;20068;-85
2023/05/14 09:40:19;;;;;;;;;;;24.70;61.60;;;;;;5111408;27;20169;-87
2023/05/14 09:42:45;;;;;;;;;;;25.20;59.90;;;;;;5131351;27;21345;-84
2023/05/14 09:45:11;;;;;;;;;;;25.70;53.70;;;;;;5151370;27;19937;-83
2023/05/14 09:47:37;;;;;;;;;;;26.30;57.20;;;;;;5109378;28;19971;-88
2023/05/14 09:50:02;;;;;;;;;;;26.80;55.00;;;;;;5118591;28;20006;-87
2023/05/14 09:52:28;;;;;;;;;;;27.30;52.10;;;;;;5112168;28;19935;-87
2023/05/14 09:54:54;;;;;;;;;;;27.40;45.20;;;;;;5116207;28;19989;-87
2023/05/14 09:57:20;;;;;;;;;;;27.50;49.70;;;;;;5108413;28;19954;-86
2023/05/14 09:59:45;;;;;;;;;;;27.80;47.70;;;;;;5087154;28;21646;-83
2023/05/14 10:02:21;;;;;;;;;;;28.10;48.30;;;;;;5107781;28;19923;-86
2023/05/14 10:04:52;;;;;;;;;;;28.40;44.50;;;;;;5103322;28;20413;-84
2023/05/14 10:07:20;;;;;;;;;;;28.90;45.70;;;;;;5099582;28;19927;-85
2023/05/14 10:09:46;;;;;;;;;;;29.30;45.90;;;;;;5110829;28;20147;-85
2023/05/14 10:12:12;;;;;;;;;;;29.70;42.90;;;;;;5103976;28;20553;-85
2023/05/14 10:14:40;;;;;;;;;;;30.00;43.20;;;;;;5093162;28;20073;-85
2023/05/14 10:17:06;;;;;;;;;;;30.30;42.70;;;;;;5120085;28;19924;-85
2023/05/14 10:19:34;;;;;;;;;;;30.60;41.70;;;;;;5111567;28;19928;-85
2023/05/14 10:22:03;;;;;;;;;;;30.50;36.70;;;;;;5121565;28;20048;-84
2023/05/14 10:24:30;;;;;;;;;;;30.30;36.70;;;;;;5105375;28;19969;-84
2023/05/14 10:26:57;;;;;;;;;;;30.40;39.90;;;;;;5103805;27;19923;-84
2023/05/14 10:29:32;;;;;;;;;;;30.70;38.70;;;;;;5126179;27;19977;-85
2023/05/14 10:32:02;;;;;;;;;;;31.10;36.50;;;;;;5120032;27;19936;-84
2023/05/14 10:34:42;;;;;;;;;;;31.70;32.40;;;;;;5133287;27;19927;-85
2023/05/14 10:37:09;;;;;;;;;;;31.90;30.00;;;;;;5108504;27;19978;-84
2023/05/14 10:39:57;;;;;;;;;;;31.60;32.80;;;;;;5125139;27;19931;-84
2023/05/14 10:42:23;;;;;;;;;;;31.30;33.60;;;;;;5119727;27;20019;-84
2023/05/14 10:44:50;;;;;;;;;;;31.00;36.20;;;;;;5109099;27;20380;-85
2023/05/14 10:47:16;;;;;;;;;;;30.80;36.30;;;;;;5124728;27;19923;-84
2023/05/14 10:49:43;;;;;;;;;;;30.70;37.70;;;;;;5134956;27;19930;-84
2023/05/14 10:52:09;;;;;;;;;;;30.90;36.60;;;;;;5122661;27;19976;-84
2023/05/14 10:54:35;;;;;;;;;;;31.20;36.00;;;;;;5153273;27;19923;-84
2023/05/14 10:57:01;;;;;;;;;;;31.50;35.70;;;;;;5151979;27;19930;-86
2023/05/14 10:59:27;;;;;;;;;;;31.40;31.80;;;;;;5132916;27;19924;-85
2023/05/14 11:01:52;;;;;;;;;;;31.40;31.50;;;;;;5108671;27;20372;-85
2023/05/14 11:04:18;;;;;;;;;;;31.40;31.30;;;;;;5136398;27;19930;-86
2023/05/14 11:06:45;;;;;;;;;;;30.80;26.90;;;;;;5134856;27;19930;-86
2023/05/14 11:09:12;;;;;;;;;;;30.40;32.00;;;;;;5153496;27;19923;-85
2023/05/14 11:11:37;;;;;;;;;;;30.20;32.20;;;;;;5121872;27;20064;-85
2023/05/14 11:14:03;;;;;;;;;;;30.10;29.00;;;;;;5144558;27;20034;-86
2023/05/14 11:16:29;;;;;;;;;;;30.10;33.70;;;;;;5116552;27;19934;-86
2023/05/14 11:19:02;;;;;;;;;;;30.40;33.00;;;;;;5152865;27;19984;-86
2023/05/14 11:21:28;;;;;;;;;;;31.00;31.40;;;;;;5104956;27;20023;-86
2023/05/14 11:23:55;;;;;;;;;;;31.50;30.60;;;;;;5152435;27;20379;-85
2023/05/14 11:26:21;;;;;;;;;;;31.90;28.50;;;;;;5150239;27;21327;-86
2023/05/14 11:28:47;;;;;;;;;;;32.10;32.50;;;;;;5118077;27;19966;-88
2023/05/14 11:31:12;;;;;;;;;;;32.10;27.80;;;;;;5149590;27;20039;-86
2023/05/14 11:33:38;;;;;;;;;;;32.00;29.40;;;;;;5141259;27;19927;-86
2023/05/14 11:36:04;;;;;;;;;;;32.00;28.60;;;;;;5134120;27;19953;-86
2023/05/14 11:38:30;;;;;;;;;;;32.20;29.40;;;;;;5135350;27;20027;-85
2023/05/14 11:40:56;;;;;;;;;;;32.30;26.80;;;;;;5116279;27;20367;-86
2023/05/14 11:43:28;;;;;;;;;;;32.50;26.60;;;;;;5138982;27;19930;-83
2023/05/14 11:45:54;;;;;;;;;;;32.90;28.40;;;;;;5133377;27;20006;-85
2023/05/14 11:48:20;;;;;;;;;;;33.20;26.50;;;;;;5144875;27;19966;-86
2023/05/14 11:50:50;;;;;;;;;;;33.00;24.50;;;;;;5130215;27;19923;-86
2023/05/14 11:53:19;;;;;;;;;;;33.00;24.30;;;;;;5150995;27;20383;-86
2023/05/14 11:55:45;;;;;;;;;;;33.20;26.70;;;;;;5122658;27;19927;-86
2023/05/14 11:58:11;;;;;;;;;;;33.80;23.30;;;;;;5150428;27;19931;-86
2023/05/14 12:00:37;;;;;;;;;;;34.40;25.20;;;;;;5131192;27;19939;-86
2023/05/14 12:03:03;;;;;;;;;;;34.70;26.20;;;;;;5149695;27;19949;-86
2023/05/14 12:05:28;;;;;;;;;;;34.70;25.40;;;;;;5120569;27;19934;-86
2023/05/14 12:07:55;;;;;;;;;;;34.10;23.70;;;;;;5125866;27;19937;-86
2023/05/14 12:10:20;;;;;;;;;;;33.40;25.10;;;;;;5151505;27;20406;-86
2023/05/14 12:12:46;;;;;;;;;;;32.40;25.40;;;;;;5116977;27;19922;-86
2023/05/14 12:15:12;;;;;;;;;;;31.50;27.40;;;;;;5149638;27;20368;-86
2023/05/14 12:17:38;;;;;;;;;;;30.90;28.30;;;;;;5151658;27;19938;-87
2023/05/14 12:20:07;;;;;;;;;;;30.70;28.50;;;;;;5150313;27;19931;-87
2023/05/14 12:22:33;;;;;;;;;;;30.70;28.80;;;;;;5151462;27;19927;-86
2023/05/14 12:24:59;;;;;;;;;;;31.20;27.20;;;;;;5150141;27;19948;-87
2023/05/14 12:27:25;;;;;;;;;;;31.60;26.10;;;;;;5151848;27;19919;-86
2023/05/14 12:29:57;;;;;;;;;;;32.10;25.50;;;;;;5151189;27;20291;-86
2023/05/14 12:32:24;;;;;;;;;;;32.20;25.70;;;;;;5116745;27;19927;-86
2023/05/14 12:34:49;;;;;;;;;;;32.00;26.40;;;;;;5133102;27;19992;-86
2023/05/14 12:37:15;;;;;;;;;;;31.50;27.20;;;;;;5132824;27;20568;-87
2023/05/14 12:39:41;;;;;;;;;;;31.00;25.10;;;;;;5150893;27;19946;-87
2023/05/14 12:42:06;;;;;;;;;;;30.60;23.90;;;;;;5121716;27;19946;-83
2023/05/14 12:44:32;;;;;;;;;;;30.20;24.40;;;;;;5125968;27;19923;-81
2023/05/14 12:46:57;;;;;;;;;;;29.80;26.00;;;;;;5147796;27;20470;-86
2023/05/14 12:49:23;;;;;;;;;;;29.50;27.30;;;;;;5097459;27;20058;-84
2023/05/14 12:51:49;;;;;;;;;;;29.50;28.00;;;;;;5133929;27;20279;-83
2023/05/14 12:54:14;;;;;;;;;;;29.60;28.00;;;;;;5130961;27;19930;-83
2023/05/14 12:56:40;;;;;;;;;;;29.50;28.10;;;;;;5144129;27;20042;-83
2023/05/14 12:59:06;;;;;;;;;;;29.40;28.60;;;;;;5133002;27;20389;-84
2023/05/14 13:01:31;;;;;;;;;;;29.10;24.70;;;;;;5150816;27;19934;-82
2023/05/14 13:03:58;;;;;;;;;;;28.70;28.00;;;;;;5152689;27;19926;-84
2023/05/14 13:06:23;;;;;;;;;;;28.40;27.40;;;;;;5148361;27;19926;-84
2023/05/14 13:08:49;;;;;;;;;;;28.30;27.90;;;;;;5135790;27;19923;-83
2023/05/14 13:11:15;;;;;;;;;;;28.20;26.90;;;;;;5148420;27;19935;-83
2023/05/14 13:13:40;;;;;;;;;;;28.10;25.90;;;;;;5150833;27;19923;-83
2023/05/14 13:16:06;;;;;;;;;;;28.00;28.30;;;;;;5163575;27;20013;-84
2023/05/14 13:18:32;;;;;;;;;;;28.10;29.30;;;;;;5152020;27;20426;-80
2023/05/14 13:20:57;;;;;;;;;;;28.20;29.80;;;;;;5127479;27;19958;-82
2023/05/14 13:23:23;;;;;;;;;;;28.50;28.70;;;;;;5150304;27;19919;-82
2023/05/14 13:25:48;;;;;;;;;;;28.70;28.10;;;;;;5148109;27;19926;-82
2023/05/14 13:28:14;;;;;;;;;;;29.00;26.50;;;;;;5147292;27;19923;-83
2023/05/14 13:30:39;;;;;;;;;;;29.50;28.30;;;;;;5152111;27;19923;-81
2023/05/14 13:33:05;;;;;;;;;;;29.90;27.40;;;;;;5152947;27;19926;-86
2023/05/14 13:35:31;;;;;;;;;;;30.10;25.40;;;;;;5145379;27;19922;-82
2023/05/14 13:37:56;;;;;;;;;;;30.20;27.30;;;;;;5122975;27;19923;-83
2023/05/14 13:40:22;;;;;;;;;;;30.10;27.00;;;;;;5124732;27;20383;-82
2023/05/14 13:42:47;;;;;;;;;;;29.90;26.40;;;;;;5123138;27;20234;-82
2023/05/14 13:45:13;;;;;;;;;;;29.70;26.90;;;;;;5132356;27;19927;-82
2023/05/14 13:47:38;;;;;;;;;;;29.40;25.00;;;;;;5132540;27;19927;-84
2023/05/14 13:50:04;;;;;;;;;;;29.10;26.10;;;;;;5170575;27;19975;-83
2023/05/14 13:52:30;;;;;;;;;;;29.00;26.10;;;;;;5171924;27;19977;-82
2023/05/14 13:54:55;;;;;;;;;;;28.80;26.60;;;;;;5171797;27;20328;-82
2023/05/14 13:57:21;;;;;;;;;;;28.40;26.30;;;;;;5107345;27;19970;-82
2023/05/14 13:59:47;;;;;;;;;;;28.20;25.70;;;;;;5151516;27;19930;-82
2023/05/14 14:02:13;;;;;;;;;;;28.10;26.60;;;;;;5144415;27;19950;-83
2023/05/14 14:04:39;;;;;;;;;;;28.10;25.00;;;;;;5153030;27;19971;-83
2023/05/14 14:07:04;;;;;;;;;;;28.10;25.40;;;;;;5145296;27;19938;-79
2023/05/14 14:09:34;;;;;;;;;;;28.00;25.30;;;;;;5145429;27;19943;-82
2023/05/14 14:12:02;;;;;;;;;;;28.00;27.00;;;;;;5135016;27;19922;-83
2023/05/14 14:14:27;;;;;;;;;;;28.00;26.50;;;;;;5141094;27;19927;-82